createdAt,value
2022-11-02T00:01:51.603Z,99.90
2022-11-02T00:06:55.499Z,99.90
2022-11-02T00:12:00.425Z,99.90
2022-11-02T00:17:03.811Z,99.90
2022-11-02T00:22:07.341Z,99.90
2022-11-02T00:27:12.174Z,99.90
2022-11-02T00:32:15.658Z,99.90
2022-11-02T00:37:19.409Z,99.90
2022-11-02T00:42:24.203Z,99.90
2022-11-02T00:47:27.680Z,99.90
2022-11-02T00:52:31.629Z,99.90
2022-11-02T00:57:38.203Z,99.90
2022-11-02T01:02:44.108Z,99.90
2022-11-02T01:07:48.219Z,99.90
2022-11-02T01:12:52.775Z,99.90
2022-11-02T01:17:56.148Z,99.90
2022-11-02T01:22:59.449Z,99.90
2022-11-02T01:28:04.338Z,99.90
2022-11-02T01:33:08.871Z,99.90
2022-11-02T01:38:12.231Z,99.90
2022-11-02T01:43:21.798Z,99.90
2022-11-02T01:48:31.579Z,99.90
2022-11-02T01:53:37.610Z,99.90
2022-11-02T01:58:47.255Z,99.90
2022-11-02T02:03:52.317Z,99.90
2022-11-02T02:08:58.990Z,99.90
2022-11-02T02:14:09.765Z,99.90
2022-11-02T02:19:36.183Z,99.90
2022-11-02T02:24:51.261Z,99.90
2022-11-02T02:30:04.446Z,99.90
2022-11-02T02:35:21.544Z,99.90
2022-11-02T02:40:30.950Z,99.90
2022-11-02T02:45:38.460Z,99.90
2022-11-02T02:50:47.450Z,99.90
2022-11-02T02:55:51.814Z,99.90
2022-11-02T03:00:58.627Z,99.90
2022-11-02T03:06:12.751Z,99.90
2022-11-02T03:11:20.555Z,99.90
2022-11-02T03:16:49.736Z,99.90
2022-11-02T03:22:01.533Z,99.90
2022-11-02T03:27:15.909Z,99.90
2022-11-02T03:32:27.936Z,99.90
2022-11-02T03:37:35.881Z,99.90
2022-11-02T03:42:41.749Z,99.90
2022-11-02T03:47:52.141Z,99.90
2022-11-02T03:52:59.028Z,99.90
2022-11-02T03:58:04.603Z,99.90
2022-11-02T04:03:13.202Z,99.90
2022-11-02T04:08:26.283Z,99.90
2022-11-02T04:13:56.232Z,99.90
2022-11-02T04:19:21.912Z,99.90
2022-11-02T04:24:43.878Z,99.90
2022-11-02T04:29:49.337Z,99.90
2022-11-02T04:34:54.406Z,99.90
2022-11-02T04:39:58.020Z,99.90
2022-11-02T04:45:02.026Z,99.90
2022-11-02T04:50:08.978Z,99.90
2022-11-02T04:55:12.362Z,99.90
2022-11-02T05:00:17.616Z,99.90
2022-11-02T05:05:23.116Z,99.90
2022-11-02T05:10:28.915Z,99.90
2022-11-02T05:15:33.398Z,99.90
2022-11-02T05:21:53.860Z,99.90
2022-11-02T05:27:00.504Z,99.90
2022-11-02T05:32:04.333Z,99.90
2022-11-02T05:37:39.452Z,99.90
2022-11-02T05:42:47.284Z,99.90
2022-11-02T05:47:50.894Z,99.90
2022-11-02T05:52:54.584Z,99.90
2022-11-02T05:57:59.592Z,99.90
2022-11-02T06:03:03.140Z,99.90
2022-11-02T06:08:06.735Z,99.90
2022-11-02T06:13:11.569Z,99.90
2022-11-02T06:18:15.459Z,99.90
2022-11-02T06:23:19.177Z,99.90
2022-11-02T06:28:24.482Z,99.90
2022-11-02T06:33:28.529Z,99.90
2022-11-02T06:38:32.054Z,99.90
2022-11-02T06:43:38.399Z,99.90
2022-11-02T06:48:41.678Z,99.90
2022-11-02T06:53:44.993Z,99.90
2022-11-02T06:58:49.833Z,99.90
2022-11-02T07:03:53.081Z,99.90
2022-11-02T07:08:56.343Z,99.90
2022-11-02T07:21:34.686Z,99.90
2022-11-02T07:26:38.608Z,99.90
2022-11-02T07:47:14.654Z,99.90
2022-11-02T07:52:18.068Z,99.90
2022-11-02T07:57:21.411Z,99.90
2022-11-02T08:02:26.231Z,99.90
2022-11-02T08:07:29.900Z,99.90
2022-11-02T08:12:33.298Z,99.90
2022-11-02T08:17:37.842Z,99.90
2022-11-02T08:22:41.586Z,99.90
2022-11-02T08:27:44.867Z,99.90
2022-11-02T08:32:55.485Z,99.90
2022-11-02T08:38:00.948Z,99.90
2022-11-02T08:43:06.838Z,99.90
2022-11-02T08:48:12.066Z,99.90
2022-11-02T08:53:15.404Z,99.90
2022-11-02T08:58:19.508Z,99.90
2022-11-02T09:03:27.256Z,99.90
2022-11-02T09:08:30.926Z,99.90
2022-11-02T09:13:34.553Z,99.90
2022-11-02T09:18:39.529Z,99.90
2022-11-02T09:23:42.948Z,99.90
2022-11-02T09:28:46.230Z,99.90
2022-11-02T09:33:50.781Z,99.90
2022-11-02T09:38:54.645Z,99.90
2022-11-02T09:44:03.131Z,99.90
2022-11-02T09:49:12.502Z,99.90
2022-11-02T09:54:19.979Z,99.90
2022-11-02T09:59:25.704Z,99.90
2022-11-02T10:04:55.167Z,99.90
2022-11-02T10:10:01.917Z,99.90
2022-11-02T10:15:11.178Z,99.90
2022-11-02T10:20:25.817Z,99.90
2022-11-02T10:25:29.249Z,99.90
2022-11-02T10:30:32.836Z,99.90
2022-11-02T10:36:12.055Z,99.90
2022-11-02T10:41:31.462Z,99.90
2022-11-02T10:46:49.332Z,99.90
2022-11-02T10:51:54.705Z,99.90
2022-11-02T10:56:58.998Z,99.90
2022-11-02T11:02:11.879Z,99.90
2022-11-02T11:07:23.194Z,99.90
2022-11-02T11:12:32.872Z,99.90
2022-11-02T11:23:17.919Z,99.90
2022-11-02T11:28:23.882Z,99.90
2022-11-02T11:33:27.283Z,99.90
2022-11-02T11:38:32.011Z,99.90
2022-11-02T11:43:38.555Z,99.90
2022-11-02T11:48:47.654Z,99.90
2022-11-02T11:54:18.483Z,99.90
2022-11-02T11:59:28.368Z,99.90
2022-11-02T12:04:33.937Z,99.90
2022-11-02T12:09:46.735Z,99.90
2022-11-02T12:15:06.594Z,99.90
2022-11-02T12:20:20.201Z,99.90
2022-11-02T12:25:50.343Z,99.80
2022-11-02T12:31:05.894Z,99.90
2022-11-02T12:36:18.946Z,99.90
2022-11-02T12:41:39.023Z,99.90
2022-11-02T12:46:49.180Z,95.10
2022-11-02T12:52:00.702Z,92.30
2022-11-02T12:57:11.254Z,90.00
2022-11-02T13:02:19.792Z,86.40
2022-11-02T13:07:29.754Z,83.60
2022-11-02T13:12:37.045Z,85.20
2022-11-02T13:17:44.751Z,89.30
2022-11-02T13:22:54.606Z,88.70
2022-11-02T13:28:05.964Z,90.20
2022-11-02T13:33:17.594Z,86.90
2022-11-02T13:38:29.724Z,87.90
2022-11-02T13:44:09.022Z,89.30
2022-11-02T13:49:18.704Z,90.90
2022-11-02T13:54:26.327Z,92.10
2022-11-02T13:59:32.055Z,94.10
2022-11-02T14:04:40.366Z,94.90
2022-11-02T14:09:44.803Z,96.40
2022-11-02T14:15:30.730Z,96.80
2022-11-02T14:20:37.644Z,97.40
2022-11-02T14:25:47.430Z,97.30
2022-11-02T14:30:57.736Z,97.60
2022-11-02T14:36:08.395Z,98.10
2022-11-02T14:41:37.580Z,96.60
2022-11-02T14:46:53.467Z,96.50
2022-11-02T14:52:04.205Z,94.30
2022-11-02T14:57:19.889Z,95.50
2022-11-02T15:02:24.209Z,95.60
2022-11-02T15:07:35.142Z,96.20
2022-11-02T15:12:41.330Z,95.60
2022-11-02T15:18:00.558Z,95.10
2022-11-02T15:23:30.045Z,96.10
2022-11-02T15:28:34.933Z,96.00
2022-11-02T15:33:41.815Z,96.00
2022-11-02T15:38:51.117Z,96.10
2022-11-02T15:44:33.739Z,97.30
2022-11-02T15:50:08.258Z,97.80
2022-11-02T15:55:20.394Z,97.80
2022-11-02T16:00:30.537Z,99.90
2022-11-02T16:05:42.610Z,99.90
2022-11-02T16:10:47.997Z,99.90
2022-11-02T16:16:04.582Z,99.90
2022-11-02T16:21:12.352Z,99.90
2022-11-02T16:26:22.193Z,99.90
2022-11-02T16:31:31.053Z,99.90
2022-11-02T16:36:37.147Z,99.90
2022-11-02T16:41:48.130Z,99.90
2022-11-02T16:46:55.663Z,99.90
2022-11-02T16:52:00.780Z,99.90
2022-11-02T16:57:11.428Z,99.90
2022-11-02T17:02:15.998Z,99.90
2022-11-02T17:07:23.714Z,99.90
2022-11-02T17:12:35.757Z,99.90
2022-11-02T17:17:40.498Z,99.90
2022-11-02T17:22:56.882Z,99.90
2022-11-02T17:28:03.949Z,99.90
2022-11-02T17:33:10.035Z,99.90
2022-11-02T17:38:13.794Z,99.90
2022-11-02T17:43:18.856Z,99.90
2022-11-02T17:48:22.212Z,99.90
2022-11-02T17:53:25.955Z,99.90
2022-11-02T17:58:30.535Z,99.90
2022-11-02T18:03:33.851Z,99.90
2022-11-02T18:08:57.071Z,99.90
2022-11-02T18:14:01.706Z,99.90
2022-11-02T18:19:04.969Z,99.90
2022-11-02T18:24:09.108Z,99.90
2022-11-02T18:29:14.008Z,99.90
2022-11-02T18:34:17.756Z,99.90
2022-11-02T18:39:20.997Z,99.90
2022-11-02T18:44:25.509Z,99.90
2022-11-02T18:49:28.951Z,99.90
2022-11-02T18:54:32.366Z,99.90
2022-11-02T18:59:37.223Z,99.90
2022-11-02T19:04:40.593Z,99.90
2022-11-02T19:09:44.138Z,99.90
2022-11-02T19:14:51.485Z,99.90
2022-11-02T19:19:55.757Z,99.90
2022-11-02T19:25:01.245Z,99.90
2022-11-02T19:30:08.714Z,99.90
2022-11-02T19:35:13.563Z,99.90
2022-11-02T19:40:18.090Z,99.90
2022-11-02T19:45:23.332Z,99.90
2022-11-02T19:50:26.703Z,99.90
2022-11-02T19:55:31.299Z,99.90
2022-11-02T20:00:36.981Z,99.90
2022-11-02T20:05:40.471Z,99.90
2022-11-02T20:10:43.709Z,99.90
2022-11-02T20:15:48.355Z,99.90
2022-11-02T20:20:52.586Z,99.90
2022-11-02T20:25:59.584Z,99.90
2022-11-02T20:31:08.096Z,99.90
2022-11-02T20:36:11.232Z,99.90
2022-11-02T20:41:16.203Z,99.90
2022-11-02T20:46:40.962Z,99.90
2022-11-02T20:51:44.938Z,99.90
2022-11-02T20:56:48.513Z,99.90
2022-11-02T21:01:53.064Z,99.90
2022-11-02T21:06:56.262Z,99.90
2022-11-02T21:12:18.042Z,99.90
2022-11-02T21:17:22.582Z,99.90
2022-11-02T21:22:26.310Z,99.90
2022-11-02T21:27:29.492Z,99.90
2022-11-02T21:32:33.992Z,99.90
2022-11-02T21:37:37.341Z,99.90
2022-11-02T21:42:40.912Z,99.90
2022-11-02T21:47:45.456Z,99.90
2022-11-02T21:52:48.696Z,99.90
2022-11-02T21:57:52.259Z,99.90
2022-11-02T22:02:57.061Z,99.90
2022-11-02T22:08:23.539Z,99.90
2022-11-02T22:13:32.511Z,99.90
2022-11-02T22:18:37.045Z,99.90
2022-11-02T22:23:40.686Z,99.90
2022-11-02T22:28:45.597Z,99.90
2022-11-02T22:33:52.033Z,99.90
2022-11-02T22:38:56.546Z,99.90
2022-11-02T22:44:02.589Z,99.90
2022-11-02T22:49:08.260Z,99.90
2022-11-02T22:54:14.886Z,99.90
2022-11-02T22:59:18.085Z,99.90
2022-11-02T23:04:22.494Z,99.90
2022-11-02T23:09:25.705Z,99.90
2022-11-02T23:14:28.911Z,99.90
2022-11-02T23:19:34.076Z,99.90
2022-11-02T23:24:56.225Z,99.90
2022-11-02T23:30:18.260Z,99.90
2022-11-02T23:35:41.418Z,99.90
2022-11-02T23:40:45.086Z,99.90
2022-11-02T23:45:48.120Z,99.90
2022-11-02T23:51:11.200Z,99.90
2022-11-02T23:56:34.686Z,99.90
